createdAt,value
2022-11-29T00:01:35.702Z,101562.17
2022-11-29T00:04:04.307Z,101560.39
2022-11-29T00:06:33.918Z,101562.52
2022-11-29T00:09:06.388Z,101560.33
2022-11-29T00:11:37.334Z,101553.48
2022-11-29T00:14:06.842Z,101551.57
2022-11-29T00:16:35.205Z,101546.27
2022-11-29T00:19:03.607Z,101549.55
2022-11-29T00:21:31.785Z,101546.05
2022-11-29T00:24:00.083Z,101544.58
2022-11-29T00:26:28.357Z,101538.71
2022-11-29T00:28:56.633Z,101534.34
2022-11-29T00:31:30.457Z,101533.62
2022-11-29T00:34:00.726Z,101532.41
2022-11-29T00:36:29.865Z,101524.15
2022-11-29T00:38:59.297Z,101524.38
2022-11-29T00:41:27.650Z,101516.27
2022-11-29T00:43:56.136Z,101515.58
2022-11-29T00:46:24.892Z,101520.66
2022-11-29T00:48:53.004Z,101511.05
2022-11-29T00:51:22.104Z,101511.13
2022-11-29T00:53:50.338Z,101508.01
2022-11-29T00:56:18.562Z,101502.06
2022-11-29T00:58:46.741Z,101492.94
2022-11-29T01:01:15.164Z,101493.03
2022-11-29T01:03:44.102Z,101492.85
2022-11-29T01:06:15.470Z,101493.67
2022-11-29T01:08:43.957Z,101489.84
2022-11-29T01:11:15.687Z,101485.71
2022-11-29T01:13:44.721Z,101485.84
2022-11-29T01:16:14.553Z,101488.98
2022-11-29T01:18:43.628Z,101487.53
2022-11-29T01:21:18.154Z,101483.75
2022-11-29T01:23:47.005Z,101484.82
2022-11-29T01:26:19.329Z,101485.73
2022-11-29T01:28:50.562Z,101489.92
2022-11-29T01:31:22.243Z,101494.29
2022-11-29T01:33:54.580Z,101489.59
2022-11-29T01:36:23.662Z,101488.38
2022-11-29T01:38:52.287Z,101489.42
2022-11-29T01:41:26.743Z,101493.33
2022-11-29T01:44:07.679Z,101492.30
2022-11-29T01:46:39.337Z,101490.90
2022-11-29T01:49:24.512Z,101488.81
2022-11-29T01:51:58.202Z,101489.31
2022-11-29T01:54:27.081Z,101483.65
2022-11-29T01:56:55.180Z,101484.84
2022-11-29T01:59:28.469Z,101483.56
2022-11-29T02:02:25.245Z,101484.45
2022-11-29T02:04:53.889Z,101479.49
2022-11-29T02:07:22.201Z,101478.20
2022-11-29T02:09:50.351Z,101474.09
2022-11-29T02:12:50.831Z,101471.56
2022-11-29T02:15:41.513Z,101472.14
2022-11-29T02:18:21.092Z,101469.54
2022-11-29T02:21:01.550Z,101469.88
2022-11-29T02:23:39.041Z,101463.55
2022-11-29T02:26:13.257Z,101461.92
2022-11-29T02:29:03.541Z,101460.85
2022-11-29T02:32:09.893Z,101462.87
2022-11-29T02:34:58.048Z,101461.54
2022-11-29T02:37:28.965Z,101456.63
2022-11-29T02:40:01.132Z,101453.55
2022-11-29T02:42:29.309Z,101452.58
2022-11-29T02:45:09.053Z,101451.33
2022-11-29T02:47:55.447Z,101443.05
2022-11-29T02:50:50.126Z,101444.80
2022-11-29T02:53:32.734Z,101446.07
2022-11-29T02:56:23.019Z,101441.58
2022-11-29T02:59:20.984Z,101437.41
2022-11-29T03:02:05.150Z,101431.44
2022-11-29T03:04:45.744Z,101431.95
2022-11-29T03:07:20.465Z,101432.52
2022-11-29T03:10:12.331Z,101429.43
2022-11-29T03:12:47.721Z,101429.06
2022-11-29T03:15:21.805Z,101432.83
2022-11-29T03:18:02.649Z,101426.10
2022-11-29T03:20:39.419Z,101426.48
2022-11-29T03:23:19.481Z,101422.66
2022-11-29T03:25:57.474Z,101422.55
2022-11-29T03:28:28.211Z,101425.52
2022-11-29T03:31:27.935Z,101427.58
2022-11-29T03:33:56.496Z,101427.95
2022-11-29T03:36:45.078Z,101427.81
2022-11-29T03:39:28.672Z,101426.04
2022-11-29T03:42:02.435Z,101422.23
2022-11-29T03:44:47.039Z,101417.88
2022-11-29T03:47:21.655Z,101417.08
2022-11-29T03:49:53.724Z,101416.16
2022-11-29T03:52:32.143Z,101416.02
2022-11-29T03:55:09.419Z,101414.20
2022-11-29T03:57:55.915Z,101410.91
2022-11-29T04:00:24.825Z,101413.69
2022-11-29T04:02:56.206Z,101415.59
2022-11-29T04:05:40.614Z,101413.74
2022-11-29T04:08:34.675Z,101417.55
2022-11-29T04:11:40.760Z,101412.45
2022-11-29T04:14:31.307Z,101410.80
2022-11-29T04:17:38.573Z,101408.63
2022-11-29T04:20:25.582Z,101405.50
2022-11-29T04:23:21.698Z,101402.30
2022-11-29T04:25:49.772Z,101398.48
2022-11-29T04:28:45.073Z,101400.02
2022-11-29T04:31:28.948Z,101392.70
2022-11-29T04:34:15.608Z,101392.81
2022-11-29T04:37:02.002Z,101396.83
2022-11-29T04:39:45.529Z,101408.11
2022-11-29T04:42:19.539Z,101403.15
2022-11-29T04:45:12.380Z,101399.58
2022-11-29T04:48:08.239Z,101395.91
2022-11-29T04:51:05.781Z,101397.23
2022-11-29T04:53:44.966Z,101392.23
2022-11-29T04:56:54.797Z,101387.13
2022-11-29T04:59:31.672Z,101387.67
2022-11-29T05:02:10.800Z,101383.11
2022-11-29T05:05:26.254Z,101385.08
2022-11-29T05:08:09.986Z,101384.34
2022-11-29T05:11:00.782Z,101380.50
2022-11-29T05:14:06.725Z,101372.19
2022-11-29T05:16:49.122Z,101364.91
2022-11-29T05:19:24.382Z,101378.45
2022-11-29T05:22:10.761Z,101382.64
2022-11-29T05:24:55.921Z,101383.70
2022-11-29T05:27:54.290Z,101381.30
2022-11-29T05:30:24.895Z,101381.77
2022-11-29T05:32:52.824Z,101384.00
2022-11-29T05:35:51.058Z,101383.69
2022-11-29T05:38:28.140Z,101383.69
2022-11-29T05:41:11.635Z,101383.73
2022-11-29T05:44:17.506Z,101386.83
2022-11-29T05:46:59.544Z,101386.61
2022-11-29T05:49:33.612Z,101390.27
2022-11-29T05:52:30.340Z,101393.38
2022-11-29T05:54:58.520Z,101401.40
2022-11-29T05:57:43.897Z,101391.43
2022-11-29T06:00:14.213Z,101390.91
2022-11-29T06:03:03.308Z,101386.55
2022-11-29T06:05:59.286Z,101394.22
2022-11-29T06:08:46.086Z,101401.31
2022-11-29T06:11:20.694Z,101404.50
2022-11-29T06:14:00.773Z,101404.66
2022-11-29T06:16:53.702Z,101410.10
2022-11-29T06:19:47.261Z,101405.06
2022-11-29T06:22:34.371Z,101405.89
2022-11-29T06:25:36.524Z,101412.77
2022-11-29T06:28:23.636Z,101416.56
2022-11-29T06:30:55.291Z,101422.27
2022-11-29T06:33:30.121Z,101418.23
2022-11-29T06:36:23.371Z,101416.71
2022-11-29T06:38:51.825Z,101409.60
2022-11-29T06:41:23.017Z,101413.70
2022-11-29T06:43:51.803Z,101418.27
2022-11-29T06:47:05.308Z,101416.24
2022-11-29T06:49:36.255Z,101415.73
2022-11-29T06:52:15.789Z,101415.98
2022-11-29T06:55:14.971Z,101416.69
2022-11-29T06:57:43.253Z,101418.27
2022-11-29T07:00:27.291Z,101424.09
2022-11-29T07:03:21.462Z,101428.74
2022-11-29T07:05:50.067Z,101426.33
2022-11-29T07:08:21.622Z,101435.70
2022-11-29T07:10:52.267Z,101440.19
2022-11-29T07:13:21.340Z,101439.20
2022-11-29T07:16:11.597Z,101433.33
2022-11-29T07:19:01.803Z,101434.09
2022-11-29T07:21:38.884Z,101431.69
2022-11-29T07:24:34.999Z,101435.64
2022-11-29T07:27:21.801Z,101443.00
2022-11-29T07:30:19.399Z,101444.67
2022-11-29T07:33:00.011Z,101444.67
2022-11-29T07:35:43.236Z,101444.52
2022-11-29T07:38:26.455Z,101438.59
2022-11-29T07:41:13.052Z,101445.34
2022-11-29T07:43:55.049Z,101447.05
2022-11-29T07:46:23.596Z,101445.39
2022-11-29T07:48:52.223Z,101446.87
2022-11-29T07:51:20.514Z,101452.94
2022-11-29T07:53:48.885Z,101459.08
2022-11-29T07:56:17.066Z,101464.46
2022-11-29T07:58:45.384Z,101469.86
2022-11-29T08:01:13.661Z,101468.60
2022-11-29T08:03:42.531Z,101465.30
2022-11-29T08:06:10.701Z,101466.80
2022-11-29T08:08:43.735Z,101464.76
2022-11-29T08:11:13.194Z,101470.52
2022-11-29T08:13:41.789Z,101478.11
2022-11-29T08:16:16.623Z,101478.27
2022-11-29T08:18:45.388Z,101485.25
2022-11-29T08:21:13.584Z,101481.54
2022-11-29T08:23:41.760Z,101477.04
2022-11-29T08:26:10.451Z,101480.41
2022-11-29T08:28:39.350Z,101479.91
2022-11-29T08:31:10.435Z,101482.24
2022-11-29T08:33:43.489Z,101485.26
2022-11-29T08:36:15.674Z,101488.65
2022-11-29T08:38:43.958Z,101492.80
2022-11-29T08:41:14.771Z,101480.52
2022-11-29T08:43:44.180Z,101483.14
2022-11-29T08:46:17.971Z,101490.90
2022-11-29T08:48:48.107Z,101485.25
2022-11-29T08:51:16.182Z,101488.92
2022-11-29T08:53:44.464Z,101491.61
2022-11-29T08:59:05.589Z,101492.73
2022-11-29T09:01:33.828Z,101491.41
2022-11-29T09:04:02.161Z,101494.55
2022-11-29T09:06:37.506Z,101492.80
2022-11-29T09:09:06.489Z,101500.27
2022-11-29T09:11:36.538Z,101504.63
2022-11-29T09:14:07.650Z,101504.66
2022-11-29T09:16:37.715Z,101501.73
2022-11-29T09:19:06.675Z,101502.78
2022-11-29T09:21:36.480Z,101499.31
2022-11-29T09:24:06.093Z,101489.00
2022-11-29T09:26:36.142Z,101485.79
2022-11-29T09:29:06.850Z,101489.06
2022-11-29T09:31:36.017Z,101487.17
2022-11-29T09:34:04.433Z,101489.27
2022-11-29T09:36:32.714Z,101490.20
2022-11-29T09:39:02.429Z,101491.02
2022-11-29T09:42:01.530Z,101488.52
2022-11-29T09:44:38.695Z,101488.61
2022-11-29T09:47:48.533Z,101486.98
2022-11-29T09:50:23.660Z,101485.03
2022-11-29T09:53:29.393Z,101484.98
2022-11-29T09:56:19.941Z,101485.02
2022-11-29T09:58:48.059Z,101482.55
2022-11-29T10:01:27.583Z,101484.30
2022-11-29T10:04:01.780Z,101484.10
2022-11-29T10:06:36.881Z,101485.88
2022-11-29T10:09:13.724Z,101476.05
2022-11-29T10:12:03.197Z,101471.42
2022-11-29T10:14:53.263Z,101472.59
2022-11-29T10:17:32.190Z,101466.85
2022-11-29T10:20:20.321Z,101464.69
2022-11-29T10:22:59.761Z,101470.48
2022-11-29T10:25:58.122Z,101462.14
2022-11-29T10:28:32.217Z,101455.86
2022-11-29T10:31:14.978Z,101456.89
2022-11-29T10:33:44.456Z,101459.06
2022-11-29T10:36:25.484Z,101457.52
2022-11-29T10:38:59.944Z,101460.53
2022-11-29T10:41:28.535Z,101459.34
2022-11-29T10:43:58.682Z,101455.19
2022-11-29T10:46:33.772Z,101453.37
2022-11-29T10:49:10.592Z,101448.29
2022-11-29T10:51:38.851Z,101448.16
2022-11-29T10:54:39.718Z,101442.39
2022-11-29T10:57:16.855Z,101438.91
2022-11-29T11:00:03.766Z,101438.46
2022-11-29T11:02:33.379Z,101437.97
2022-11-29T11:05:01.859Z,101431.55
2022-11-29T11:07:35.892Z,101435.37
2022-11-29T11:10:18.175Z,101428.85
2022-11-29T11:13:05.366Z,101422.82
2022-11-29T11:15:33.696Z,101422.06
2022-11-29T11:18:07.545Z,101419.05
2022-11-29T11:20:41.806Z,101415.20
2022-11-29T11:23:30.125Z,101413.13
2022-11-29T11:26:04.430Z,101406.33
2022-11-29T11:29:02.403Z,101408.95
2022-11-29T11:31:36.515Z,101405.84
2022-11-29T11:34:35.601Z,101400.81
2022-11-29T11:37:16.261Z,101398.68
2022-11-29T11:39:46.978Z,101394.80
2022-11-29T11:42:38.569Z,101390.27
2022-11-29T11:45:13.138Z,101385.02
2022-11-29T11:47:48.889Z,101381.82
2022-11-29T11:50:28.216Z,101379.84
2022-11-29T11:52:59.074Z,101378.41
2022-11-29T11:55:33.114Z,101372.02
2022-11-29T11:58:13.280Z,101372.80
2022-11-29T12:01:08.907Z,101375.85
2022-11-29T12:03:48.531Z,101366.02
2022-11-29T12:06:28.789Z,101360.73
2022-11-29T12:09:09.070Z,101360.59
2022-11-29T12:12:04.673Z,101356.10
2022-11-29T12:14:45.286Z,101355.93
2022-11-29T12:17:35.319Z,101351.11
2022-11-29T12:20:12.467Z,101344.76
2022-11-29T12:23:05.747Z,101343.55
2022-11-29T12:25:46.166Z,101342.43
2022-11-29T12:28:20.397Z,101339.80
2022-11-29T12:30:55.381Z,101338.86
2022-11-29T12:34:07.842Z,101334.75
2022-11-29T12:36:44.823Z,101330.41
2022-11-29T12:39:18.014Z,101322.77
2022-11-29T12:42:04.445Z,101323.98
2022-11-29T12:44:35.467Z,101319.29
2022-11-29T12:47:35.039Z,101308.81
2022-11-29T12:50:15.197Z,101302.48
2022-11-29T12:53:14.385Z,101301.02
2022-11-29T12:56:15.619Z,101289.91
2022-11-29T12:59:11.840Z,101282.74
2022-11-29T13:02:02.798Z,101275.35
2022-11-29T13:04:33.899Z,101275.48
2022-11-29T13:07:32.371Z,101272.21
2022-11-29T13:10:25.592Z,101270.35
2022-11-29T13:12:58.678Z,101261.41
2022-11-29T13:15:59.666Z,101256.14
2022-11-29T13:18:41.407Z,101247.78
2022-11-29T13:21:24.211Z,101244.16
2022-11-29T13:24:09.133Z,101241.11
2022-11-29T13:26:40.512Z,101235.52
2022-11-29T13:29:16.290Z,101238.29
2022-11-29T13:31:46.951Z,101238.16
2022-11-29T13:34:33.197Z,101231.19
2022-11-29T13:37:26.151Z,101228.92
2022-11-29T13:40:16.116Z,101235.37
2022-11-29T13:42:57.292Z,101230.83
2022-11-29T13:45:42.866Z,101230.47
2022-11-29T13:48:29.466Z,101225.13
2022-11-29T13:50:58.565Z,101227.69
2022-11-29T13:53:48.546Z,101226.26
2022-11-29T13:56:29.772Z,101224.09
2022-11-29T13:58:58.816Z,101217.73
2022-11-29T14:01:28.464Z,101217.07
2022-11-29T14:04:05.314Z,101216.79
2022-11-29T14:06:36.747Z,101215.59
2022-11-29T14:09:20.917Z,101215.84
2022-11-29T14:11:52.965Z,101217.27
2022-11-29T14:14:42.021Z,101212.04
2022-11-29T14:17:35.175Z,101211.53
2022-11-29T14:20:23.201Z,101214.95
2022-11-29T14:23:06.948Z,101210.94
2022-11-29T14:25:52.709Z,101207.89
2022-11-29T14:28:21.336Z,101207.39
2022-11-29T14:30:54.287Z,101207.14
2022-11-29T14:33:41.374Z,101200.05
2022-11-29T14:36:15.610Z,101201.67
2022-11-29T14:39:02.208Z,101202.40
2022-11-29T14:41:49.315Z,101201.38
2022-11-29T14:44:17.697Z,101196.96
2022-11-29T14:46:48.108Z,101198.73
2022-11-29T14:49:27.768Z,101195.97
2022-11-29T14:52:09.992Z,101195.85
2022-11-29T14:54:55.839Z,101193.70
2022-11-29T14:57:53.804Z,101189.27
2022-11-29T15:00:29.071Z,101193.23
2022-11-29T15:03:19.196Z,101190.75
2022-11-29T15:06:12.448Z,101189.88
2022-11-29T15:08:49.565Z,101191.17
2022-11-29T15:11:23.980Z,101193.81
2022-11-29T15:14:02.694Z,101195.41
2022-11-29T15:17:03.726Z,101195.33
2022-11-29T15:20:07.459Z,101197.20
2022-11-29T15:22:50.529Z,101201.96
2022-11-29T15:25:30.347Z,101204.47
2022-11-29T15:28:04.079Z,101207.67
2022-11-29T15:30:32.564Z,101211.67
2022-11-29T15:33:04.427Z,101208.20
2022-11-29T15:35:35.264Z,101212.20
2022-11-29T15:38:04.028Z,101210.14
2022-11-29T15:40:32.341Z,101211.19
2022-11-29T15:43:20.984Z,101210.94
2022-11-29T15:45:54.327Z,101208.55
2022-11-29T15:48:25.423Z,101210.63
2022-11-29T15:50:56.670Z,101208.92
2022-11-29T15:53:48.323Z,101207.75
2022-11-29T15:56:22.911Z,101210.73
2022-11-29T15:58:57.232Z,101211.49
2022-11-29T16:01:25.574Z,101212.35
2022-11-29T16:03:57.273Z,101215.41
2022-11-29T16:06:40.823Z,101213.88
2022-11-29T16:09:16.755Z,101216.00
2022-11-29T16:11:48.001Z,101217.14
2022-11-29T16:14:26.088Z,101219.86
2022-11-29T16:16:57.976Z,101220.67
2022-11-29T16:19:37.078Z,101220.23
2022-11-29T16:22:21.953Z,101222.80
2022-11-29T16:24:55.963Z,101222.15
2022-11-29T16:27:24.656Z,101224.25
2022-11-29T16:29:53.861Z,101227.33
2022-11-29T16:32:32.886Z,101223.73
2022-11-29T16:35:13.340Z,101224.88
2022-11-29T16:37:44.745Z,101228.12
2022-11-29T16:40:39.395Z,101230.70
2022-11-29T16:43:20.905Z,101229.33
2022-11-29T16:45:49.178Z,101228.08
2022-11-29T16:48:23.763Z,101226.48
2022-11-29T16:51:10.465Z,101225.09
2022-11-29T16:53:43.556Z,101222.59
2022-11-29T16:56:13.572Z,101218.04
2022-11-29T16:59:24.893Z,101224.52
2022-11-29T17:01:31.902Z,101224.31
2022-11-29T17:04:00.684Z,101226.54
2022-11-29T17:06:29.923Z,101223.09
2022-11-29T17:08:59.585Z,101226.21
2022-11-29T17:11:28.021Z,101232.89
2022-11-29T17:13:56.409Z,101238.17
2022-11-29T17:16:25.027Z,101236.43
2022-11-29T17:18:53.168Z,101236.08
2022-11-29T17:21:23.195Z,101241.61
2022-11-29T17:23:52.903Z,101243.64
2022-11-29T17:26:22.517Z,101245.80
2022-11-29T17:28:52.739Z,101244.27
2022-11-29T17:31:23.619Z,101245.89
2022-11-29T17:33:52.091Z,101239.80
2022-11-29T17:36:21.267Z,101243.15
2022-11-29T17:38:49.546Z,101251.14
2022-11-29T17:41:22.740Z,101250.69
2022-11-29T17:43:52.336Z,101251.62
2022-11-29T17:46:25.031Z,101247.09
2022-11-29T17:48:53.926Z,101249.91
2022-11-29T17:54:13.408Z,101255.80
2022-11-29T17:56:41.695Z,101257.36
2022-11-29T17:59:09.985Z,101258.35
2022-11-29T18:01:38.288Z,101261.25
2022-11-29T18:04:07.042Z,101259.38
2022-11-29T18:06:40.142Z,101259.20
2022-11-29T18:09:10.750Z,101265.40
2022-11-29T18:11:47.377Z,101271.77
2022-11-29T18:14:22.166Z,101269.58
2022-11-29T18:16:51.318Z,101266.86
2022-11-29T18:19:21.730Z,101268.61
2022-11-29T18:21:50.703Z,101266.48
2022-11-29T18:24:18.769Z,101263.40
2022-11-29T18:26:47.153Z,101267.30
2022-11-29T18:29:15.544Z,101265.64
2022-11-29T18:31:45.762Z,101262.48
2022-11-29T18:34:14.965Z,101263.27
2022-11-29T18:36:48.372Z,101262.27
2022-11-29T18:39:19.749Z,101266.77
2022-11-29T18:41:49.949Z,101256.98
2022-11-29T18:44:20.691Z,101255.75
2022-11-29T18:46:49.192Z,101250.54
2022-11-29T18:49:18.172Z,101247.43
2022-11-29T18:51:47.129Z,101255.01
2022-11-29T18:54:17.806Z,101257.50
2022-11-29T18:56:46.379Z,101256.91
2022-11-29T18:59:17.833Z,101258.30
2022-11-29T19:01:48.225Z,101257.89
2022-11-29T19:04:19.516Z,101253.36
2022-11-29T19:06:47.859Z,101252.39
2022-11-29T19:09:19.481Z,101250.38
2022-11-29T19:11:47.834Z,101253.63
2022-11-29T19:14:15.907Z,101255.27
2022-11-29T19:16:46.195Z,101258.73
2022-11-29T19:19:14.412Z,101263.38
2022-11-29T19:21:42.592Z,101268.57
2022-11-29T19:24:15.956Z,101268.41
2022-11-29T19:26:46.839Z,101268.52
2022-11-29T19:29:16.340Z,101269.44
2022-11-29T19:31:44.621Z,101270.13
2022-11-29T19:34:12.789Z,101270.34
2022-11-29T19:36:42.096Z,101266.55
2022-11-29T19:39:10.681Z,101267.39
2022-11-29T19:41:39.387Z,101267.89
2022-11-29T19:44:09.112Z,101263.21
2022-11-29T19:46:40.701Z,101260.98
2022-11-29T19:49:09.776Z,101264.45
2022-11-29T19:51:38.430Z,101258.81
2022-11-29T19:54:08.742Z,101254.05
2022-11-29T19:56:37.841Z,101254.42
2022-11-29T19:59:07.194Z,101249.73
2022-11-29T20:01:40.657Z,101257.89
2022-11-29T20:04:12.008Z,101261.79
2022-11-29T20:06:40.807Z,101261.17
2022-11-29T20:09:09.696Z,101262.90
2022-11-29T20:11:37.886Z,101263.71
2022-11-29T20:14:07.590Z,101258.80
2022-11-29T20:16:36.870Z,101259.08
2022-11-29T20:19:10.528Z,101257.07
2022-11-29T20:21:42.764Z,101257.70
2022-11-29T20:24:12.137Z,101257.70
2022-11-29T20:26:42.593Z,101259.65
2022-11-29T20:29:12.264Z,101259.54
2022-11-29T20:31:47.773Z,101258.09
2022-11-29T20:34:19.424Z,101259.37
2022-11-29T20:37:12.052Z,101256.19
2022-11-29T20:39:53.687Z,101250.75
2022-11-29T20:42:33.992Z,101253.95
2022-11-29T20:45:05.891Z,101259.56
2022-11-29T20:47:55.054Z,101254.75
2022-11-29T20:50:28.526Z,101257.63
2022-11-29T20:53:20.228Z,101252.92
2022-11-29T20:55:49.739Z,101261.00
2022-11-29T20:58:17.915Z,101260.23
2022-11-29T21:00:46.809Z,101258.63
2022-11-29T21:03:16.462Z,101247.32
2022-11-29T21:05:44.657Z,101247.52
2022-11-29T21:08:13.978Z,101252.30
2022-11-29T21:10:42.488Z,101256.30
2022-11-29T21:13:12.814Z,101262.39
2022-11-29T21:15:41.816Z,101264.18
2022-11-29T21:18:30.178Z,101266.52
2022-11-29T21:21:13.474Z,101271.62
2022-11-29T21:23:52.301Z,101269.09
2022-11-29T21:26:30.168Z,101269.41
2022-11-29T21:29:04.845Z,101265.80
2022-11-29T21:31:33.356Z,101265.12
2022-11-29T21:34:02.304Z,101263.48
2022-11-29T21:36:30.489Z,101264.92
2022-11-29T21:39:03.633Z,101263.31
2022-11-29T21:41:34.027Z,101260.92
2022-11-29T21:44:07.215Z,101254.20
2022-11-29T21:46:36.820Z,101250.62
2022-11-29T21:49:05.292Z,101251.77
2022-11-29T21:51:33.468Z,101255.31
2022-11-29T21:54:02.269Z,101255.88
2022-11-29T21:56:30.440Z,101255.47
2022-11-29T21:58:58.618Z,101256.55
2022-11-29T22:01:27.564Z,101262.23
2022-11-29T22:03:55.996Z,101257.30
2022-11-29T22:06:24.295Z,101255.54
2022-11-29T22:08:53.075Z,101255.98
2022-11-29T22:11:23.512Z,101247.00
2022-11-29T22:13:53.625Z,101245.09
2022-11-29T22:16:21.592Z,101240.96
2022-11-29T22:18:50.704Z,101237.25
2022-11-29T22:21:19.283Z,101241.29
2022-11-29T22:23:47.468Z,101242.52
2022-11-29T22:26:15.641Z,101250.88
2022-11-29T22:28:43.818Z,101248.66
2022-11-29T22:31:12.893Z,101247.73
2022-11-29T22:33:40.995Z,101237.12
2022-11-29T22:36:12.525Z,101232.73
2022-11-29T22:38:40.625Z,101230.39
2022-11-29T22:41:11.484Z,101227.39
2022-11-29T22:43:41.092Z,101229.17
2022-11-29T22:46:12.026Z,101232.27
2022-11-29T22:48:41.953Z,101236.33
2022-11-29T22:51:15.965Z,101235.15
2022-11-29T22:53:52.214Z,101234.52
2022-11-29T22:56:21.203Z,101233.31
2022-11-29T22:58:49.899Z,101235.70
2022-11-29T23:01:24.158Z,101233.42
2022-11-29T23:03:54.907Z,101230.77
2022-11-29T23:06:22.924Z,101228.52
2022-11-29T23:08:53.457Z,101229.23
2022-11-29T23:11:27.787Z,101229.40
2022-11-29T23:13:56.639Z,101233.67
2022-11-29T23:16:27.825Z,101238.85
2022-11-29T23:18:58.663Z,101242.36
2022-11-29T23:21:32.678Z,101240.59
2022-11-29T23:24:01.570Z,101239.19
2022-11-29T23:26:48.262Z,101234.17
2022-11-29T23:29:18.982Z,101226.55
2022-11-29T23:31:47.776Z,101226.73
2022-11-29T23:34:16.377Z,101221.52
2022-11-29T23:36:49.642Z,101214.00
2022-11-29T23:39:21.232Z,101209.84
2022-11-29T23:41:49.412Z,101206.87
2022-11-29T23:44:17.583Z,101201.62
2022-11-29T23:46:45.681Z,101197.23
2022-11-29T23:49:14.248Z,101201.25
2022-11-29T23:51:42.427Z,101201.86
2022-11-29T23:54:10.604Z,101203.88
2022-11-29T23:56:39.193Z,101207.45
2022-11-29T23:59:07.780Z,101211.38
